Time;durP1;ratioP1;P1;durP2;ratioP2;P2;SDS_P1;SDS_P2;PMS_P1;PMS_P2;Temp;Humidity;BMP_temperature;BMP_pressure;BME280_temperature;BME280_humidity;BME280_pressure;Samples;Min_cycle;Max_cycle;Signal;HPM_P1;HPM_P2
2023/04/20 00:02:01;;;;;;;1999.90;999.90;;;2.60;99.90;;;;;;5079573;28;20040;-80
2023/04/20 00:04:28;;;;;;;1999.90;999.90;;;2.60;99.90;;;;;;5060703;28;20055;-80
2023/04/20 00:06:55;;;;;;;1999.90;999.90;;;2.60;99.90;;;;;;5059585;28;20045;-80
2023/04/20 00:09:21;;;;;;;1999.90;999.90;;;2.40;99.90;;;;;;5061117;28;20036;-80
2023/04/20 00:11:47;;;;;;;1999.90;999.90;;;2.40;99.90;;;;;;5078794;28;20041;-80
2023/04/20 00:14:14;;;;;;;1999.90;999.90;;;2.40;99.90;;;;;;5060504;28;20463;-80
2023/04/20 00:16:40;;;;;;;1999.90;999.90;;;2.30;99.90;;;;;;5060532;28;20033;-80
2023/04/20 00:19:06;;;;;;;1999.90;999.90;;;2.30;99.90;;;;;;5060401;28;20031;-79
2023/04/20 00:21:32;;;;;;;1999.90;999.90;;;2.40;99.90;;;;;;5059925;28;20044;-80
2023/04/20 00:23:58;;;;;;;1999.90;999.90;;;2.30;99.90;;;;;;5060492;28;20144;-80
2023/04/20 00:26:24;;;;;;;1999.90;999.90;;;2.30;99.90;;;;;;5060422;28;20590;-80
2023/04/20 00:28:50;;;;;;;1999.90;999.90;;;2.20;99.90;;;;;;5079885;28;20060;-80
2023/04/20 00:31:16;;;;;;;1999.90;999.90;;;2.10;99.90;;;;;;5079235;28;20060;-80
2023/04/20 00:33:42;;;;;;;1999.90;999.90;;;2.20;99.90;;;;;;5079311;28;20168;-80
2023/04/20 00:36:08;;;;;;;1999.90;999.90;;;2.20;99.90;;;;;;5078742;28;20403;-80
2023/04/20 00:38:33;;;;;;;1999.90;999.90;;;2.30;99.90;;;;;;5079485;28;20108;-80
2023/04/20 00:40:59;;;;;;;1999.90;999.90;;;2.20;99.90;;;;;;5079517;28;20154;-79
2023/04/20 00:43:24;;;;;;;1999.90;999.90;;;2.20;99.90;;;;;;5079766;28;20037;-80
2023/04/20 00:45:51;;;;;;;1999.90;999.90;;;2.20;99.90;;;;;;5060272;28;20087;-80
2023/04/20 00:48:17;;;;;;;1999.90;999.90;;;2.30;99.90;;;;;;5079541;28;20036;-80
2023/04/20 00:50:43;;;;;;;1999.90;999.90;;;2.30;99.90;;;;;;5060561;28;20064;-80
2023/04/20 00:53:10;;;;;;;1999.90;999.90;;;2.20;99.90;;;;;;5079560;28;20041;-80
2023/04/20 00:55:36;;;;;;;1999.90;999.90;;;2.20;99.90;;;;;;5060535;28;20033;-79
2023/04/20 00:58:02;;;;;;;1999.90;999.90;;;2.10;99.90;;;;;;5074335;28;20041;-80
2023/04/20 01:00:28;;;;;;;1999.90;999.90;;;2.10;99.90;;;;;;5058623;28;20037;-79
2023/04/20 01:02:53;;;;;;;1999.90;999.90;;;2.10;99.90;;;;;;5048519;28;20372;-80
2023/04/20 01:05:20;;;;;;;1999.90;999.90;;;2.00;99.90;;;;;;5055655;28;20112;-80
2023/04/20 01:07:45;;;;;;;1999.90;999.90;;;1.90;99.90;;;;;;5078171;28;20055;-80
2023/04/20 01:10:11;;;;;;;1999.90;999.90;;;2.00;99.90;;;;;;5058676;28;20033;-80
2023/04/20 01:12:37;;;;;;;1999.90;999.90;;;1.90;99.90;;;;;;5042234;28;20056;-80
2023/04/20 01:15:07;;;;;;;1999.90;999.90;;;1.90;99.90;;;;;;5068191;28;20034;-79
2023/04/20 01:17:35;;;;;;;1999.90;999.90;;;2.00;99.90;;;;;;5055009;28;20766;-80
2023/04/20 01:20:01;;;;;;;1999.90;999.90;;;2.00;99.90;;;;;;5061134;28;20075;-80
2023/04/20 01:22:26;;;;;;;1999.90;999.90;;;1.90;99.90;;;;;;5065598;28;20061;-80
2023/04/20 01:24:53;;;;;;;1999.90;999.90;;;1.80;99.90;;;;;;5068916;28;20037;-80
2023/04/20 01:27:18;;;;;;;1999.90;999.90;;;1.90;99.90;;;;;;5064147;28;20036;-80
2023/04/20 01:29:45;;;;;;;1999.90;999.90;;;1.80;99.90;;;;;;5046657;28;20029;-79
2023/04/20 01:32:11;;;;;;;1999.90;999.90;;;1.80;99.90;;;;;;5070593;28;20041;-80
2023/04/20 01:34:37;;;;;;;1999.90;999.90;;;1.80;99.90;;;;;;5059472;28;20041;-80
2023/04/20 01:37:06;;;;;;;1999.90;999.90;;;1.80;99.90;;;;;;5041178;28;20041;-80
2023/04/20 01:39:35;;;;;;;1999.90;999.90;;;1.80;99.90;;;;;;5060992;28;20105;-80
2023/04/20 01:42:01;;;;;;;1999.90;999.90;;;1.80;99.90;;;;;;5082322;28;20036;-80
2023/04/20 01:44:26;;;;;;;1999.90;999.90;;;1.80;99.90;;;;;;5083343;28;20116;-80
2023/04/20 01:46:52;;;;;;;1999.90;999.90;;;1.90;99.90;;;;;;5081686;28;20049;-80
2023/04/20 01:49:17;;;;;;;1999.90;999.90;;;2.00;99.90;;;;;;5081590;28;20048;-80
2023/04/20 01:51:43;;;;;;;1999.90;999.90;;;2.00;99.90;;;;;;5081180;28;20033;-80
2023/04/20 01:54:08;;;;;;;1999.90;999.90;;;1.90;99.90;;;;;;5059005;28;20128;-80
2023/04/20 01:56:34;;;;;;;1999.90;999.90;;;1.80;99.90;;;;;;5076533;28;20029;-80
2023/04/20 01:58:59;;;;;;;1999.90;999.90;;;1.90;99.90;;;;;;5077002;28;20510;-80
2023/04/20 02:01:25;;;;;;;1999.90;999.90;;;1.90;99.90;;;;;;5077811;28;20036;-80
2023/04/20 02:03:50;;;;;;;1999.90;999.90;;;1.80;99.90;;;;;;5059433;28;21665;-80
2023/04/20 02:06:16;;;;;;;1999.90;999.90;;;1.80;99.90;;;;;;5059596;28;20047;-80
2023/04/20 02:08:42;;;;;;;1999.90;999.90;;;1.70;99.90;;;;;;5060545;28;20064;-80
2023/04/20 02:11:07;;;;;;;1999.90;999.90;;;1.80;99.90;;;;;;5079171;28;20044;-80
2023/04/20 02:13:33;;;;;;;1999.90;999.90;;;1.80;99.90;;;;;;5078954;28;20033;-80
2023/04/20 02:15:58;;;;;;;1999.90;999.90;;;1.80;99.90;;;;;;5078934;28;20051;-80
2023/04/20 02:18:24;;;;;;;1999.90;999.90;;;1.70;99.90;;;;;;5058802;28;20063;-80
2023/04/20 02:20:49;;;;;;;1999.90;999.90;;;1.60;99.90;;;;;;5077020;28;20127;-80
2023/04/20 02:23:15;;;;;;;1999.90;999.90;;;1.60;99.90;;;;;;5054948;28;20033;-80
2023/04/20 02:25:41;;;;;;;1999.90;999.90;;;1.60;99.90;;;;;;5057714;28;20077;-80
2023/04/20 02:28:06;;;;;;;1999.90;999.90;;;1.70;99.90;;;;;;5059479;28;20041;-80
2023/04/20 02:30:32;;;;;;;1999.90;999.90;;;1.80;99.90;;;;;;5059816;28;20048;-80
2023/04/20 02:32:58;;;;;;;1999.90;999.90;;;1.70;99.90;;;;;;5059196;28;20037;-80
2023/04/20 02:35:23;;;;;;;1999.90;999.90;;;1.70;99.90;;;;;;5060433;28;20056;-80
2023/04/20 02:37:49;;;;;;;1999.90;999.90;;;1.70;99.90;;;;;;5078370;28;20057;-80
2023/04/20 02:40:14;;;;;;;1999.90;999.90;;;1.70;99.90;;;;;;5078353;28;20033;-80
2023/04/20 02:42:40;;;;;;;1999.90;999.90;;;1.60;99.90;;;;;;5078382;28;20080;-80
2023/04/20 02:45:06;;;;;;;1999.90;999.90;;;1.50;99.90;;;;;;5063646;28;20029;-79
2023/04/20 02:47:32;;;;;;;1999.90;999.90;;;1.50;99.90;;;;;;5062602;28;20037;-79
2023/04/20 02:49:57;;;;;;;1999.90;999.90;;;1.50;99.90;;;;;;5063984;28;20033;-80
2023/04/20 02:52:23;;;;;;;1999.90;999.90;;;1.60;99.90;;;;;;5062994;28;20033;-80
2023/04/20 02:54:48;;;;;;;1999.90;999.90;;;1.40;99.90;;;;;;5062317;28;20083;-80
2023/04/20 02:57:14;;;;;;;1999.90;999.90;;;1.30;99.90;;;;;;5047143;28;20069;-80
2023/04/20 02:59:39;;;;;;;1999.90;999.90;;;1.40;99.90;;;;;;5073651;28;20033;-80
2023/04/20 03:02:05;;;;;;;1999.90;999.90;;;1.40;99.90;;;;;;5062389;28;20120;-80
2023/04/20 03:04:31;;;;;;;1999.90;999.90;;;1.50;99.90;;;;;;5076885;28;20463;-80
2023/04/20 03:06:57;;;;;;;1999.90;999.90;;;1.50;99.90;;;;;;5056142;28;20091;-80
2023/04/20 03:09:23;;;;;;;1999.90;999.90;;;1.50;99.90;;;;;;5066298;28;20116;-80
2023/04/20 03:11:49;;;;;;;1999.90;999.90;;;1.40;99.90;;;;;;5060002;28;20029;-80
2023/04/20 03:14:15;;;;;;;1999.90;999.90;;;1.30;99.90;;;;;;5080467;28;20029;-80
2023/04/20 03:16:41;;;;;;;1999.90;999.90;;;1.20;99.90;;;;;;5081143;28;20033;-81
2023/04/20 03:19:42;;;;;;;1999.90;999.90;;;1.20;99.90;;;;;;5069957;28;20038;-80
2023/04/20 03:22:07;;;;;;;1999.90;999.90;;;1.20;99.90;;;;;;5046853;28;20045;-80
2023/04/20 03:24:33;;;;;;;1999.90;999.90;;;1.20;99.90;;;;;;5044765;28;20509;-80
2023/04/20 03:26:58;;;;;;;1999.90;999.90;;;1.20;99.90;;;;;;5049277;28;20043;-80
2023/04/20 03:29:24;;;;;;;1999.90;999.90;;;1.20;99.90;;;;;;5082389;28;20099;-81
2023/04/20 03:31:50;;;;;;;1999.90;999.90;;;1.30;99.90;;;;;;5060511;28;20051;-80
2023/04/20 03:34:15;;;;;;;1999.90;999.90;;;1.30;99.90;;;;;;5059959;28;20029;-80
2023/04/20 03:36:41;;;;;;;1999.90;999.90;;;1.30;99.90;;;;;;5059587;28;20032;-80
2023/04/20 03:39:06;;;;;;;1999.90;999.90;;;1.20;99.90;;;;;;5059343;28;20075;-80
2023/04/20 03:41:32;;;;;;;1999.90;999.90;;;1.20;99.90;;;;;;5059476;28;20514;-80
2023/04/20 03:43:57;;;;;;;1999.90;999.90;;;1.10;99.90;;;;;;5069547;28;20037;-80
2023/04/20 03:46:23;;;;;;;1999.90;999.90;;;1.00;99.90;;;;;;5057201;28;20061;-80
2023/04/20 03:48:49;;;;;;;1999.90;999.90;;;1.00;99.90;;;;;;5057613;28;20120;-80
2023/04/20 03:51:14;;;;;;;1999.90;999.90;;;1.10;99.90;;;;;;5044879;28;20044;-80
2023/04/20 03:53:40;;;;;;;1999.90;999.90;;;1.20;99.90;;;;;;5059879;28;20029;-80
2023/04/20 03:56:06;;;;;;;1999.90;999.90;;;1.20;99.90;;;;;;5049694;28;20038;-81
2023/04/20 03:58:31;;;;;;;1999.90;999.90;;;1.20;99.90;;;;;;5062036;28;20035;-80
2023/04/20 04:01:01;;;;;;;1999.90;999.90;;;1.20;99.90;;;;;;5059416;28;20044;-81
2023/04/20 04:03:27;;;;;;;1999.90;999.90;;;1.20;99.90;;;;;;5059318;28;20770;-80
2023/04/20 04:05:53;;;;;;;1999.90;999.90;;;1.10;99.90;;;;;;5077489;28;20036;-80
2023/04/20 04:08:18;;;;;;;1999.90;999.90;;;1.10;99.90;;;;;;5075464;22;20040;-81
2023/04/20 04:10:44;;;;;;;1999.90;999.90;;;1.30;99.90;;;;;;5079017;28;20409;-81
2023/04/20 04:13:09;;;;;;;1999.90;999.90;;;1.10;99.90;;;;;;5062321;28;20417;-81
2023/04/20 04:15:35;;;;;;;1999.90;999.90;;;1.10;99.90;;;;;;5081342;28;20457;-80
2023/04/20 04:18:00;;;;;;;1999.90;999.90;;;1.10;99.90;;;;;;5062852;28;20036;-81
2023/04/20 04:20:26;;;;;;;1999.90;999.90;;;1.00;99.90;;;;;;5062927;28;20037;-81
2023/04/20 04:22:51;;;;;;;1999.90;999.90;;;0.90;99.90;;;;;;5080877;28;20033;-80
2023/04/20 04:25:17;;;;;;;1999.90;999.90;;;0.90;99.90;;;;;;5062196;28;20040;-81
2023/04/20 04:27:45;;;;;;;1999.90;999.90;;;0.80;99.90;;;;;;5062211;28;20146;-81
2023/04/20 04:30:12;;;;;;;1999.90;999.90;;;0.70;99.90;;;;;;5052193;28;20038;-80
2023/04/20 04:32:38;;;;;;;1999.90;999.90;;;0.80;99.90;;;;;;5056444;28;20138;-80
2023/04/20 04:35:04;;;;;;;1999.90;999.90;;;0.80;99.90;;;;;;5061802;28;20044;-82
2023/04/20 04:37:29;;;;;;;1999.90;999.90;;;1.00;99.90;;;;;;5053932;28;20049;-81
2023/04/20 04:39:57;;;;;;;1999.90;999.90;;;1.00;99.90;;;;;;5080794;28;20041;-80
2023/04/20 04:42:23;;;;;;;1999.90;999.90;;;1.10;99.90;;;;;;5062212;28;20044;-82
2023/04/20 04:44:51;;;;;;;1999.90;999.90;;;1.10;99.90;;;;;;5062232;28;20044;-81
2023/04/20 04:47:20;;;;;;;1999.90;999.90;;;1.20;99.90;;;;;;5067315;28;20045;-80
2023/04/20 04:49:46;;;;;;;1999.90;999.90;;;1.20;99.90;;;;;;5080658;28;20065;-79
2023/04/20 04:52:12;;;;;;;1999.90;999.90;;;1.20;99.90;;;;;;5059454;28;20032;-79
2023/04/20 04:54:38;;;;;;;1999.90;999.90;;;1.20;99.90;;;;;;5059336;28;20037;-78
2023/04/20 04:57:03;;;;;;;1999.90;999.90;;;1.30;99.90;;;;;;5059778;28;20823;-79
2023/04/20 04:59:29;;;;;;;1999.90;999.90;;;1.40;99.90;;;;;;5060329;28;20575;-82
2023/04/20 05:01:55;;;;;;;1999.90;999.90;;;1.30;99.90;;;;;;5060670;28;20064;-79
2023/04/20 05:04:20;;;;;;;1999.90;999.90;;;1.30;99.90;;;;;;5078308;28;20390;-81
2023/04/20 05:06:46;;;;;;;1999.90;999.90;;;1.40;99.90;;;;;;5076916;28;20778;-78
2023/04/20 05:09:11;;;;;;;1999.90;999.90;;;1.30;99.90;;;;;;5077453;28;20029;-78
2023/04/20 05:11:37;;;;;;;1999.90;999.90;;;1.30;99.90;;;;;;5058884;28;20033;-78
2023/04/20 05:14:02;;;;;;;1999.90;999.90;;;1.40;99.90;;;;;;5077173;28;20436;-78
2023/04/20 05:16:28;;;;;;;1999.90;999.90;;;1.40;99.90;;;;;;5058413;28;20044;-78
2023/04/20 05:18:53;;;;;;;1999.90;999.90;;;1.40;99.90;;;;;;5081671;28;20040;-79
2023/04/20 05:21:19;;;;;;;1999.90;999.90;;;1.40;99.90;;;;;;5086473;28;20036;-78
2023/04/20 05:23:45;;;;;;;1999.90;999.90;;;1.40;99.90;;;;;;5064856;28;20074;-78
2023/04/20 05:26:10;;;;;;;1999.90;999.90;;;1.40;99.90;;;;;;5058139;28;20118;-78
2023/04/20 05:28:36;;;;;;;1999.90;999.90;;;1.40;99.90;;;;;;5077126;28;20028;-79
2023/04/20 05:31:01;;;;;;;1999.90;999.90;;;1.50;99.90;;;;;;5059013;28;20470;-79
2023/04/20 05:33:27;;;;;;;1999.90;999.90;;;1.60;99.90;;;;;;5058487;28;20393;-77
2023/04/20 05:35:56;;;;;;;1999.90;999.90;;;1.70;99.90;;;;;;5058458;28;20454;-78
2023/04/20 05:38:23;;;;;;;1999.90;999.90;;;1.80;99.90;;;;;;5058222;28;20467;-78
2023/04/20 05:40:48;;;;;;;1999.90;999.90;;;1.90;99.90;;;;;;5058106;28;20123;-78
2023/04/20 05:43:16;;;;;;;1999.90;999.90;;;2.00;99.90;;;;;;5058192;28;20032;-79
2023/04/20 05:45:41;;;;;;;1999.90;999.90;;;2.00;99.90;;;;;;5056740;28;20079;-76
2023/04/20 05:48:07;;;;;;;1999.90;999.90;;;2.10;99.90;;;;;;5074553;28;20128;-77
2023/04/20 05:50:32;;;;;;;1999.90;999.90;;;2.10;99.90;;;;;;5056651;28;20039;-77
2023/04/20 05:52:58;;;;;;;1999.90;999.90;;;2.20;99.90;;;;;;5075033;28;20035;-76
2023/04/20 05:55:23;;;;;;;1999.90;999.90;;;2.20;99.90;;;;;;5056441;28;20029;-77
2023/04/20 05:57:50;;;;;;;1999.90;999.90;;;2.40;99.90;;;;;;5056797;28;20045;-78
2023/04/20 06:00:16;;;;;;;1999.90;999.90;;;2.40;99.90;;;;;;5074835;28;20820;-76
2023/04/20 06:02:42;;;;;;;1999.90;999.90;;;2.60;99.90;;;;;;5056476;28;20033;-76
2023/04/20 06:05:09;;;;;;;1999.90;999.90;;;2.60;99.90;;;;;;5056216;28;20037;-74
2023/04/20 06:07:36;;;;;;;1999.90;999.90;;;2.70;99.90;;;;;;5055788;28;20514;-76
2023/04/20 06:10:03;;;;;;;1999.90;999.90;;;2.80;99.90;;;;;;5074598;28;20800;-76
2023/04/20 06:12:31;;;;;;;1999.90;999.90;;;2.90;99.90;;;;;;5056229;28;20111;-74
2023/04/20 06:14:57;;;;;;;1999.90;999.90;;;3.00;99.90;;;;;;5055641;28;20047;-75
2023/04/20 06:17:23;;;;;;;1999.90;999.90;;;3.10;99.90;;;;;;5056014;28;20453;-75
2023/04/20 06:19:48;;;;;;;1999.90;999.90;;;3.20;99.90;;;;;;5077446;28;20029;-75
2023/04/20 06:22:15;;;;;;;1999.90;999.90;;;3.30;99.90;;;;;;5078379;28;20041;-76
2023/04/20 06:24:41;;;;;;;1999.90;999.90;;;3.40;99.90;;;;;;5077922;28;20079;-75
2023/04/20 06:27:10;;;;;;;1999.90;999.90;;;3.60;99.90;;;;;;5077805;28;20033;-75
2023/04/20 06:29:36;;;;;;;1999.90;999.90;;;3.80;99.90;;;;;;5059791;28;20060;-75
2023/04/20 06:32:01;;;;;;;1999.90;999.90;;;4.00;99.90;;;;;;5078134;28;20033;-75
2023/04/20 06:34:27;;;;;;;1999.90;999.90;;;4.20;99.90;;;;;;5077802;28;20029;-75
2023/04/20 06:36:53;;;;;;;1999.90;999.90;;;4.40;99.90;;;;;;5059415;28;20067;-75
2023/04/20 06:39:18;;;;;;;1999.90;999.90;;;4.50;99.90;;;;;;5077820;28;20025;-75
2023/04/20 06:41:44;;;;;;;1999.90;999.90;;;4.70;99.90;;;;;;5077883;28;20055;-75
2023/04/20 06:44:10;;;;;;;1999.90;999.90;;;4.90;99.90;;;;;;5077597;28;20416;-75
2023/04/20 06:46:35;;;;;;;1999.90;999.90;;;5.00;99.90;;;;;;5059237;28;20524;-75
2023/04/20 06:49:01;;;;;;;1999.90;999.90;;;5.10;99.90;;;;;;5059602;28;20032;-78
2023/04/20 06:51:28;;;;;;;1999.90;999.90;;;5.20;99.90;;;;;;5060609;28;20029;-77
2023/04/20 06:53:54;;;;;;;1999.90;999.90;;;5.30;99.90;;;;;;5078502;28;20036;-77
2023/04/20 06:56:20;;;;;;;1999.90;999.90;;;5.40;99.90;;;;;;5078352;28;20406;-77
2023/04/20 06:58:46;;;;;;;1999.90;999.90;;;5.50;99.90;;;;;;5060206;28;20031;-77
2023/04/20 07:01:11;;;;;;;1999.90;999.90;;;5.60;99.90;;;;;;5060235;28;20029;-78
2023/04/20 07:03:37;;;;;;;1999.90;999.90;;;5.70;99.90;;;;;;5060223;28;20108;-78
2023/04/20 07:06:03;;;;;;;1999.90;999.90;;;5.80;99.90;;;;;;5078399;28;20395;-78
2023/04/20 07:08:29;;;;;;;1999.90;999.90;;;5.90;99.90;;;;;;5078154;28;20835;-78
2023/04/20 07:10:54;;;;;;;1999.90;999.90;;;6.00;99.90;;;;;;5078436;28;20037;-78
2023/04/20 07:13:20;;;;;;;1999.90;999.90;;;6.10;99.90;;;;;;5078664;28;20037;-78
2023/04/20 07:15:45;;;;;;;1999.90;999.90;;;6.20;99.90;;;;;;5079009;28;20037;-78
2023/04/20 07:18:11;;;;;;;1999.90;999.90;;;6.30;99.90;;;;;;5060946;28;20039;-78
2023/04/20 07:20:37;;;;;;;1999.90;999.90;;;6.40;99.90;;;;;;5078729;28;20033;-78
2023/04/20 07:23:02;;;;;;;1999.90;999.90;;;6.50;99.90;;;;;;5060869;28;20033;-77
2023/04/20 07:25:30;;;;;;;1999.90;999.90;;;6.60;99.90;;;;;;5078707;28;20037;-78
2023/04/20 07:27:56;;;;;;;1999.90;999.90;;;6.80;99.90;;;;;;5083421;28;20481;-78
2023/04/20 07:30:21;;;;;;;1999.90;999.90;;;7.00;99.90;;;;;;5078384;28;20082;-78
2023/04/20 07:32:48;;;;;;;1999.90;999.90;;;7.20;99.90;;;;;;5078085;28;20499;-76
2023/04/20 07:35:14;;;;;;;1999.90;999.90;;;7.30;99.90;;;;;;5059898;28;20116;-77
2023/04/20 07:37:40;;;;;;;1999.90;999.90;;;7.30;99.90;;;;;;5061054;28;20802;-77
2023/04/20 07:40:06;;;;;;;1999.90;999.90;;;7.50;99.90;;;;;;5086445;28;20085;-76
2023/04/20 07:42:33;;;;;;;1999.90;999.90;;;7.50;99.90;;;;;;5065278;28;20037;-77
2023/04/20 07:44:59;;;;;;;1999.90;999.90;;;7.60;99.90;;;;;;5077411;28;20033;-78
2023/04/20 07:47:24;;;;;;;1999.90;999.90;;;7.60;99.90;;;;;;5058714;28;20041;-77
2023/04/20 07:49:50;;;;;;;1999.90;999.90;;;7.70;99.90;;;;;;5059132;28;20528;-77
2023/04/20 07:52:17;;;;;;;1999.90;999.90;;;7.90;99.90;;;;;;5077622;28;20067;-78
2023/04/20 07:54:43;;;;;;;1999.90;999.90;;;8.10;99.90;;;;;;5058797;28;20829;-77
2023/04/20 07:57:09;;;;;;;1999.90;999.90;;;8.20;99.90;;;;;;5077101;28;20138;-77
2023/04/20 07:59:34;;;;;;;1999.90;999.90;;;8.50;99.90;;;;;;5077359;28;20571;-78
2023/04/20 08:02:01;;;;;;;1999.90;999.90;;;8.70;99.90;;;;;;5059514;28;20460;-78
2023/04/20 08:04:27;;;;;;;1999.90;999.90;;;8.90;99.90;;;;;;5077226;28;20033;-78
2023/04/20 08:06:52;;;;;;;1999.90;999.90;;;9.00;99.90;;;;;;5058354;28;20037;-79
2023/04/20 08:09:18;;;;;;;1999.90;999.90;;;8.90;99.90;;;;;;5071119;28;20037;-84
2023/04/20 08:11:45;;;;;;;1999.90;999.90;;;9.00;99.90;;;;;;5038736;28;20041;-79
2023/04/20 08:14:11;;;;;;;1999.90;999.90;;;9.10;99.90;;;;;;5060693;28;20033;-83
2023/04/20 08:16:37;;;;;;;1999.90;999.90;;;9.20;99.90;;;;;;5047700;28;20029;-81
2023/04/20 08:19:08;;;;;;;1999.90;999.90;;;9.40;99.90;;;;;;5046620;28;20029;-78
2023/04/20 08:21:43;;;;;;;1999.90;999.90;;;9.50;99.90;;;;;;5056297;28;20163;-85
2023/04/20 08:24:09;;;;;;;1999.90;999.90;;;9.70;99.90;;;;;;5073114;28;20040;-83
2023/04/20 08:26:35;;;;;;;1999.90;999.90;;;9.80;99.90;;;;;;5057536;28;20119;-83
2023/04/20 08:29:02;;;;;;;1999.90;999.90;;;10.00;99.90;;;;;;5058986;28;20033;-81
2023/04/20 08:31:27;;;;;;;1999.90;999.90;;;10.00;99.90;;;;;;5058975;28;20036;-81
2023/04/20 08:33:53;;;;;;;1999.90;999.90;;;10.20;99.90;;;;;;5058483;28;20039;-80
2023/04/20 08:36:19;;;;;;;1999.90;999.90;;;10.40;99.90;;;;;;5077367;28;20037;-80
2023/04/20 08:38:45;;;;;;;1999.90;999.90;;;10.50;99.90;;;;;;5079261;28;20032;-82
2023/04/20 08:41:13;;;;;;;1999.90;999.90;;;10.40;99.90;;;;;;5058601;28;20021;-81
2023/04/20 08:43:40;;;;;;;1999.90;999.90;;;10.40;99.90;;;;;;5058912;28;20043;-81
2023/04/20 08:46:06;;;;;;;1999.90;999.90;;;10.40;99.90;;;;;;5058728;28;20035;-82
2023/04/20 08:48:35;;;;;;;1999.90;999.90;;;10.70;99.90;;;;;;5058042;28;20536;-79
2023/04/20 08:51:02;;;;;;;1999.90;999.90;;;11.20;99.90;;;;;;5058711;28;20033;-81
2023/04/20 08:53:28;;;;;;;1999.90;999.90;;;11.30;99.90;;;;;;5059434;28;20064;-79
2023/04/20 08:55:55;;;;;;;1999.90;999.90;;;11.10;99.90;;;;;;5082402;28;20057;-81
2023/04/20 08:58:23;;;;;;;1999.90;999.90;;;11.20;99.90;;;;;;5075917;28;20029;-76
2023/04/20 09:00:48;;;;;;;1999.90;999.90;;;11.20;99.90;;;;;;5075793;28;20033;-77
2023/04/20 09:03:14;;;;;;;1999.90;999.90;;;11.20;99.90;;;;;;5057139;28;20033;-77
2023/04/20 09:05:40;;;;;;;1999.90;999.90;;;11.10;99.80;;;;;;5075445;28;20614;-76
2023/04/20 09:08:07;;;;;;;1999.90;999.90;;;10.90;99.70;;;;;;5056583;28;20053;-78
2023/04/20 09:10:43;;;;;;;1999.90;999.90;;;11.00;99.20;;;;;;5075245;28;20076;-77
2023/04/20 09:13:21;;;;;;;1999.90;999.90;;;11.30;99.50;;;;;;5057154;28;20037;-76
2023/04/20 09:15:46;;;;;;;1999.90;999.90;;;11.60;99.20;;;;;;5075271;28;20511;-77
2023/04/20 09:18:13;;;;;;;1999.90;999.90;;;11.80;98.40;;;;;;5075191;28;20168;-80
2023/04/20 09:20:41;;;;;;;1999.90;999.90;;;11.80;97.60;;;;;;5075624;28;20033;-79
2023/04/20 09:23:11;;;;;;;1999.90;999.90;;;11.80;97.90;;;;;;5059870;28;20406;-79
2023/04/20 09:25:39;;;;;;;1999.90;999.90;;;12.10;96.90;;;;;;5059221;28;20481;-79
2023/04/20 09:28:05;;;;;;;1999.90;999.90;;;12.10;96.70;;;;;;5074672;28;20033;-80
2023/04/20 09:30:46;;;;;;;1999.90;999.90;;;12.00;96.60;;;;;;5051283;28;20033;-80
2023/04/20 09:33:13;;;;;;;1999.90;999.90;;;12.00;96.50;;;;;;5051729;28;20558;-79
2023/04/20 09:35:43;;;;;;;1999.90;999.90;;;11.80;95.90;;;;;;5077510;28;20156;-80
2023/04/20 09:38:10;;;;;;;1999.90;999.90;;;11.90;95.90;;;;;;5067540;28;20036;-79
2023/04/20 09:40:36;;;;;;;1999.90;999.90;;;11.90;96.40;;;;;;5060471;28;20032;-79
2023/04/20 09:43:21;;;;;;;1999.90;999.90;;;11.80;96.60;;;;;;5046868;28;20042;-79
2023/04/20 09:45:48;;;;;;;1999.90;999.90;;;11.60;96.50;;;;;;5046957;28;20041;-80
2023/04/20 09:48:17;;;;;;;1999.90;999.90;;;11.80;97.90;;;;;;5058698;28;20033;-81
2023/04/20 09:50:43;;;;;;;1999.90;999.90;;;11.90;97.20;;;;;;5060430;28;20029;-80
2023/04/20 09:53:09;;;;;;;1999.90;999.90;;;11.90;97.60;;;;;;5060951;28;20029;-80
2023/04/20 09:55:36;;;;;;;1999.90;999.90;;;12.20;96.50;;;;;;5061793;28;20043;-80
2023/04/20 09:58:03;;;;;;;1999.90;999.90;;;12.10;96.80;;;;;;5082151;28;20033;-79
2023/04/20 10:00:29;;;;;;;1999.90;999.90;;;12.10;96.10;;;;;;5072287;28;20040;-79
2023/04/20 10:02:56;;;;;;;1999.90;999.90;;;11.80;96.80;;;;;;5065916;28;20044;-80
2023/04/20 10:05:35;;;;;;;1999.90;999.90;;;11.90;96.40;;;;;;5061904;28;20036;-80
2023/04/20 10:08:01;;;;;;;1999.90;999.90;;;11.90;96.10;;;;;;5082944;28;20057;-80
2023/04/20 10:10:28;;;;;;;1999.90;999.90;;;11.90;95.30;;;;;;5057292;28;20085;-80
2023/04/20 10:12:55;;;;;;;1999.90;999.90;;;12.10;96.10;;;;;;5038175;28;20047;-81
2023/04/20 10:15:23;;;;;;;1999.90;999.90;;;12.10;95.70;;;;;;5037051;28;20037;-80
2023/04/20 10:17:49;;;;;;;1999.90;999.90;;;12.20;94.90;;;;;;5055907;28;20029;-80
2023/04/20 10:20:23;;;;;;;1999.90;999.90;;;12.10;95.80;;;;;;5037176;28;20029;-80
2023/04/20 10:22:50;;;;;;;1999.90;999.90;;;12.00;95.80;;;;;;5038434;28;20534;-80
2023/04/20 10:25:25;;;;;;;1999.90;999.90;;;12.10;96.30;;;;;;5080541;22;20059;-75
2023/04/20 10:28:00;;;;;;;1999.90;999.90;;;12.20;95.70;;;;;;5055887;28;20082;-76
2023/04/20 10:30:29;;;;;;;1999.90;999.90;;;12.00;95.40;;;;;;5064271;28;20034;-75
2023/04/20 10:33:11;;;;;;;1999.90;999.90;;;11.90;95.90;;;;;;5055727;28;20025;-77
2023/04/20 10:35:56;;;;;;;1999.90;999.90;;;12.00;96.40;;;;;;5056197;28;20040;-80
2023/04/20 10:38:35;;;;;;;1999.90;999.90;;;12.00;96.60;;;;;;5047170;28;20044;-77
2023/04/20 10:41:11;;;;;;;1999.90;999.90;;;12.00;96.40;;;;;;5060066;28;20939;-78
2023/04/20 10:43:43;;;;;;;1999.90;999.90;;;11.80;96.10;;;;;;5056674;28;20037;-78
2023/04/20 10:46:24;;;;;;;1999.90;999.90;;;11.50;96.70;;;;;;5059206;28;20521;-78
2023/04/20 10:48:54;;;;;;;1999.90;999.90;;;11.40;96.80;;;;;;5072289;28;20039;-78
2023/04/20 10:51:20;;;;;;;1999.90;999.90;;;11.70;96.70;;;;;;5044416;28;20033;-81
2023/04/20 10:53:45;;;;;;;1999.90;999.90;;;11.90;95.70;;;;;;5058709;28;20038;-78
2023/04/20 10:56:14;;;;;;;1999.90;999.90;;;12.20;96.40;;;;;;5056731;28;20109;-77
2023/04/20 10:58:40;;;;;;;1999.90;999.90;;;12.30;94.20;;;;;;5058723;28;20037;-77
2023/04/20 11:01:06;;;;;;;1999.90;999.90;;;12.30;94.70;;;;;;5068520;28;20041;-77
2023/04/20 11:03:33;;;;;;;1999.90;999.90;;;12.10;94.30;;;;;;5063838;28;20043;-78
2023/04/20 11:06:02;;;;;;;1999.90;999.90;;;11.70;94.60;;;;;;5043625;28;20072;-78
2023/04/20 11:08:42;;;;;;;1999.90;999.90;;;11.50;95.60;;;;;;5067615;28;20030;-78
2023/04/20 11:11:18;;;;;;;1999.90;999.90;;;11.50;95.50;;;;;;5069629;28;20031;-78
2023/04/20 11:13:44;;;;;;;1999.90;999.90;;;11.30;95.30;;;;;;5075376;28;20132;-80
2023/04/20 11:16:15;;;;;;;1999.90;999.90;;;11.30;94.90;;;;;;5046936;28;20112;-78
2023/04/20 11:18:51;;;;;;;1999.90;999.90;;;11.50;95.40;;;;;;5073489;28;20063;-78
2023/04/20 11:21:17;;;;;;;1999.90;999.90;;;11.40;94.80;;;;;;5049018;28;20397;-78
2023/04/20 11:23:43;;;;;;;1999.90;999.90;;;11.20;94.00;;;;;;5061116;28;20033;-78
2023/04/20 11:26:09;;;;;;;1999.90;999.90;;;11.00;94.40;;;;;;5068983;28;20056;-77
2023/04/20 11:28:35;;;;;;;1999.90;999.90;;;11.10;95.30;;;;;;5074488;28;20495;-77
2023/04/20 11:31:01;;;;;;;1999.90;999.90;;;11.00;95.00;;;;;;5078903;28;20029;-80
2023/04/20 11:33:32;;;;;;;1999.90;999.90;;;10.70;95.10;;;;;;5067629;28;20075;-80
2023/04/20 11:35:58;;;;;;;1999.90;999.90;;;10.40;97.10;;;;;;5071364;28;20029;-79
2023/04/20 11:38:32;;;;;;;1999.90;999.90;;;10.10;99.10;;;;;;5045686;28;20036;-78
2023/04/20 11:41:03;;;;;;;1999.90;999.90;;;10.00;99.10;;;;;;5066417;28;20021;-79
2023/04/20 11:43:32;;;;;;;1999.90;999.90;;;10.10;99.50;;;;;;5065185;28;20017;-79
2023/04/20 11:45:59;;;;;;;1999.90;999.90;;;10.20;98.40;;;;;;5064642;28;20033;-79
2023/04/20 11:48:26;;;;;;;1999.90;999.90;;;10.30;99.20;;;;;;5081520;28;20039;-79
2023/04/20 11:50:51;;;;;;;1999.90;999.90;;;10.40;99.90;;;;;;5082081;28;20494;-79
2023/04/20 11:53:17;;;;;;;1999.90;999.90;;;11.00;99.10;;;;;;5080459;28;20041;-79
2023/04/20 11:56:05;;;;;;;1999.90;999.90;;;11.50;98.40;;;;;;5061458;28;20076;-80
2023/04/20 11:58:31;;;;;;;1999.90;999.90;;;11.80;96.90;;;;;;5059774;28;20398;-77
2023/04/20 12:00:56;;;;;;;1999.90;999.90;;;12.10;96.10;;;;;;5059976;28;20033;-77
2023/04/20 12:03:22;;;;;;;1999.90;999.90;;;12.50;96.00;;;;;;5077494;28;26101;-77
2023/04/20 12:05:48;;;;;;;1999.90;999.90;;;12.50;95.00;;;;;;5077226;28;20445;-77